createdAt,value
2018-06-24T06:32:29.881Z,998.6
2018-06-24T06:33:13.327Z,998.6
2018-06-24T06:33:33.481Z,998.6
2018-06-24T06:33:53.650Z,998.6
2018-06-24T06:34:13.825Z,998.6
2018-06-24T06:34:33.950Z,998.6
2018-06-24T06:34:54.083Z,998.6
2018-06-24T06:35:14.250Z,998.6
2018-06-24T06:35:34.401Z,998.7
2018-06-24T06:35:54.575Z,998.6
2018-06-24T06:36:14.727Z,998.6
2018-06-24T06:36:34.866Z,998.6
2018-06-24T06:36:55.118Z,998.7
2018-06-24T06:37:15.212Z,998.6
2018-06-24T06:37:35.371Z,998.7
2018-06-24T06:37:55.528Z,998.7
2018-06-24T06:38:15.670Z,998.7
2018-06-24T06:38:35.840Z,998.6
2018-06-24T06:38:56.054Z,998.6
2018-06-24T06:39:16.235Z,998.6
2018-06-24T06:39:36.437Z,998.6
2018-06-24T06:39:56.606Z,998.7
2018-06-24T06:40:16.769Z,998.6
2018-06-24T06:40:36.921Z,998.6
2018-06-24T06:40:57.093Z,998.7
2018-06-24T06:41:17.278Z,998.7
2018-06-24T06:41:37.470Z,998.7
2018-06-24T06:41:57.628Z,998.7
2018-06-24T06:42:17.813Z,998.7
2018-06-24T06:42:37.998Z,998.7
2018-06-24T06:42:58.179Z,998.7
2018-06-24T06:43:18.378Z,998.7
2018-06-24T06:43:38.570Z,998.7
2018-06-24T06:43:58.731Z,998.7
2018-06-24T06:44:18.868Z,998.7
2018-06-24T06:44:39.118Z,998.7
2018-06-24T06:44:59.431Z,998.7
2018-06-24T06:45:19.688Z,998.7
2018-06-24T06:45:39.887Z,998.7
2018-06-24T06:45:59.798Z,998.7
2018-06-24T06:46:19.945Z,998.7
2018-06-24T06:46:40.060Z,998.7
2018-06-24T06:47:00.206Z,998.8
2018-06-24T06:47:20.381Z,998.7
2018-06-24T06:47:40.615Z,998.7
2018-06-24T06:48:00.772Z,998.7
2018-06-24T06:48:21.031Z,998.8
2018-06-24T06:48:41.191Z,998.7
2018-06-24T06:49:01.341Z,998.7
2018-06-24T06:49:21.487Z,998.7
2018-06-24T06:49:41.662Z,998.7
2018-06-24T06:50:01.823Z,998.7
2018-06-24T06:50:21.977Z,998.7
2018-06-24T06:50:42.121Z,998.7
2018-06-24T06:51:02.370Z,998.7
2018-06-24T06:51:22.515Z,998.7
2018-06-24T06:51:42.678Z,998.7
2018-06-24T06:52:02.914Z,998.7
2018-06-24T06:52:23.142Z,998.7
2018-06-24T06:52:43.406Z,998.7
2018-06-24T06:53:03.572Z,998.7
2018-06-24T06:53:23.751Z,998.7
2018-06-24T06:53:43.894Z,998.7
2018-06-24T06:54:04.101Z,998.7
2018-06-24T06:54:24.234Z,998.7
2018-06-24T06:54:44.394Z,998.7
2018-06-24T06:55:04.590Z,998.7
2018-06-24T06:55:24.768Z,998.7
2018-06-24T06:55:44.932Z,998.7
2018-06-24T06:56:05.074Z,998.7
2018-06-24T06:56:25.233Z,998.7
2018-06-24T06:56:45.397Z,998.7
2018-06-24T06:57:05.565Z,998.6
2018-06-24T06:57:25.722Z,998.7
2018-06-24T06:57:45.938Z,998.7
2018-06-24T06:58:06.086Z,998.7
2018-06-24T06:58:26.234Z,998.7
2018-06-24T06:58:46.412Z,998.7
2018-06-24T06:59:06.611Z,998.7
2018-06-24T06:59:26.696Z,998.6
2018-06-24T06:59:46.843Z,998.7
2018-06-24T07:00:07.007Z,998.7
2018-06-24T07:00:27.160Z,998.7
2018-06-24T07:00:47.369Z,998.7
2018-06-24T07:01:07.491Z,998.7
2018-06-24T07:01:27.654Z,998.7
2018-06-24T07:01:47.821Z,998.7
2018-06-24T07:02:07.962Z,998.7
2018-06-24T07:02:28.160Z,998.7
2018-06-24T07:02:48.406Z,998.7
2018-06-24T07:03:08.666Z,998.7
2018-06-24T07:03:28.955Z,998.7
2018-06-24T07:03:48.992Z,998.7
2018-06-24T07:04:09.161Z,998.7
2018-06-24T07:04:29.304Z,998.7
2018-06-24T07:04:49.440Z,998.7
2018-06-24T07:05:09.603Z,998.7
2018-06-24T07:05:29.775Z,998.7
2018-06-24T07:05:50.052Z,998.7
2018-06-24T07:06:10.165Z,998.7
2018-06-24T07:06:30.328Z,998.8
2018-06-24T07:06:50.503Z,998.7
2018-06-24T07:07:10.636Z,998.7
2018-06-24T07:07:30.815Z,998.7
2018-06-24T07:07:51.036Z,998.7
2018-06-24T07:08:11.227Z,998.7
2018-06-24T07:08:31.422Z,998.7
2018-06-24T07:08:51.588Z,998.7
2018-06-24T07:09:11.926Z,998.7
2018-06-24T07:09:32.237Z,998.8
2018-06-24T07:09:52.452Z,998.8
2018-06-24T07:10:12.750Z,998.7
2018-06-24T07:10:32.889Z,998.7
2018-06-24T07:10:53.101Z,998.7
2018-06-24T07:11:13.309Z,998.7
2018-06-24T07:11:33.523Z,998.7
2018-06-24T07:11:53.720Z,998.7
2018-06-24T07:12:14.014Z,998.7
2018-06-24T07:12:34.260Z,998.7
2018-06-24T07:12:54.418Z,998.7
2018-06-24T07:13:14.641Z,998.7
2018-06-24T07:13:34.823Z,998.8
2018-06-24T07:13:54.994Z,998.7
2018-06-24T07:14:15.290Z,998.7
2018-06-24T07:14:35.513Z,998.8
2018-06-24T07:14:55.640Z,998.8
2018-06-24T07:15:15.790Z,998.8
2018-06-24T07:15:35.931Z,998.8
2018-06-24T07:15:56.106Z,998.8
2018-06-24T07:16:16.301Z,998.8
2018-06-24T07:16:36.498Z,998.8
2018-06-24T07:16:56.867Z,998.8
2018-06-24T07:17:17.034Z,998.7
2018-06-24T07:17:37.235Z,998.8
2018-06-24T07:17:57.430Z,998.7
2018-06-24T07:18:17.599Z,998.8
2018-06-24T07:18:37.737Z,998.8
2018-06-24T07:18:57.942Z,998.8
2018-06-24T07:19:18.148Z,998.8
2018-06-24T07:19:38.319Z,998.8
2018-06-24T07:19:58.493Z,998.8
2018-06-24T07:20:18.725Z,998.8
2018-06-24T07:20:38.880Z,998.8
2018-06-24T07:20:59.160Z,998.8
2018-06-24T07:21:19.329Z,998.8
2018-06-24T07:21:39.524Z,998.8
2018-06-24T07:21:59.753Z,998.8
2018-06-24T07:22:20.003Z,998.8
2018-06-24T07:22:40.177Z,998.8
2018-06-24T07:23:00.356Z,998.8
2018-06-24T07:23:20.591Z,998.8
2018-06-24T07:23:40.770Z,998.8
2018-06-24T07:24:00.930Z,998.8
2018-06-24T07:24:21.124Z,998.8
2018-06-24T07:24:41.321Z,998.8
2018-06-24T07:25:01.500Z,998.8
2018-06-24T07:25:21.712Z,998.8
2018-06-24T07:25:41.894Z,998.8
2018-06-24T07:26:02.070Z,998.8
2018-06-24T07:26:22.212Z,998.8
2018-06-24T07:26:42.380Z,998.8
2018-06-24T07:27:02.551Z,998.9
2018-06-24T07:27:22.719Z,998.9
2018-06-24T07:27:43.052Z,998.9
2018-06-24T07:28:03.233Z,998.9
2018-06-24T07:28:23.485Z,998.9
2018-06-24T07:28:43.737Z,998.8
2018-06-24T07:29:04.106Z,998.9
2018-06-24T07:29:24.310Z,998.9
2018-06-24T07:29:44.503Z,998.8
2018-06-24T07:30:04.769Z,998.9
2018-06-24T07:30:24.960Z,998.9
2018-06-24T07:30:45.235Z,998.9
2018-06-24T07:31:05.415Z,998.8
2018-06-24T07:31:25.611Z,998.9
2018-06-24T07:31:45.836Z,998.8
2018-06-24T07:32:06.026Z,998.9
2018-06-24T07:32:26.239Z,998.9
2018-06-24T07:32:46.421Z,998.9
2018-06-24T07:33:06.637Z,998.9
2018-06-24T07:33:26.879Z,998.9
2018-06-24T07:33:47.469Z,998.9
2018-06-24T07:34:07.560Z,998.9
2018-06-24T07:34:27.738Z,998.9
2018-06-24T07:34:47.989Z,998.9
2018-06-24T07:35:08.164Z,998.9
2018-06-24T07:35:28.312Z,998.9
2018-06-24T07:35:48.505Z,998.9
2018-06-24T07:36:08.721Z,998.9
2018-06-24T07:36:28.889Z,998.9
2018-06-24T07:36:49.054Z,998.9
2018-06-24T07:37:09.277Z,998.9
2018-06-24T07:37:29.466Z,998.9
2018-06-24T07:37:49.653Z,998.9
2018-06-24T07:38:09.820Z,998.9
2018-06-24T07:38:29.942Z,998.8
2018-06-24T07:38:50.113Z,998.8
2018-06-24T07:39:10.429Z,998.8
2018-06-24T07:39:30.563Z,998.9
2018-06-24T07:39:50.767Z,998.9
2018-06-24T07:40:10.927Z,998.9
2018-06-24T07:40:31.106Z,998.8
2018-06-24T07:40:51.257Z,998.8
2018-06-24T07:41:11.435Z,998.9
2018-06-24T07:41:31.585Z,998.9
2018-06-24T07:41:51.759Z,998.8
2018-06-24T07:42:11.900Z,998.8
2018-06-24T07:42:32.055Z,998.8
2018-06-24T07:42:52.214Z,998.8
2018-06-24T07:43:12.367Z,998.8
2018-06-24T07:43:32.519Z,998.8
2018-06-24T07:43:52.659Z,998.8
2018-06-24T07:44:12.788Z,998.8
2018-06-24T07:44:32.963Z,998.8
2018-06-24T07:44:53.146Z,998.8
2018-06-24T07:45:13.326Z,998.8
2018-06-24T07:45:33.506Z,998.8
2018-06-24T07:45:53.696Z,998.8
2018-06-24T07:46:13.836Z,998.7
2018-06-24T07:46:34.021Z,998.8
2018-06-24T07:46:54.188Z,998.8
2018-06-24T07:47:14.331Z,998.7
2018-06-24T07:47:34.522Z,998.7
2018-06-24T07:47:54.698Z,998.8
2018-06-24T07:48:14.853Z,998.7
2018-06-24T07:48:35.008Z,998.7
2018-06-24T07:48:55.172Z,998.7
2018-06-24T07:49:15.460Z,998.8
2018-06-24T07:49:35.705Z,998.8
2018-06-24T07:49:55.889Z,998.8
2018-06-24T07:50:16.061Z,998.8
2018-06-24T07:50:36.226Z,998.8
2018-06-24T07:50:56.411Z,998.8
2018-06-24T07:51:16.599Z,998.8
2018-06-24T07:51:36.760Z,998.8
2018-06-24T07:51:56.918Z,998.8
2018-06-24T07:52:17.038Z,998.9
2018-06-24T07:52:37.247Z,998.8
2018-06-24T07:52:57.416Z,998.9
2018-06-24T07:53:17.567Z,998.8
2018-06-24T07:53:37.695Z,998.8
2018-06-24T07:53:57.882Z,998.9
2018-06-24T07:54:18.165Z,998.9
2018-06-24T07:54:38.473Z,998.9
2018-06-24T07:54:58.881Z,998.9
2018-06-24T07:55:19.050Z,998.9
2018-06-24T07:55:39.823Z,998.8
2018-06-24T07:56:00.003Z,998.9
2018-06-24T07:56:20.172Z,998.8
2018-06-24T07:56:40.359Z,998.9
2018-06-24T07:57:00.519Z,998.9
2018-06-24T07:57:20.836Z,998.9
2018-06-24T07:57:41.114Z,998.9
2018-06-24T07:58:01.385Z,998.9
2018-06-24T07:58:21.627Z,998.8
2018-06-24T07:58:41.783Z,998.9
2018-06-24T07:59:02.070Z,998.9
2018-06-24T07:59:23.200Z,998.9
2018-06-24T07:59:43.395Z,998.9
2018-06-24T08:00:03.580Z,998.9
2018-06-24T08:00:23.839Z,998.9
2018-06-24T08:00:43.996Z,998.9
2018-06-24T08:01:04.210Z,998.9
2018-06-24T08:01:24.347Z,998.8
2018-06-24T08:01:44.494Z,998.8
2018-06-24T08:02:04.670Z,998.8
2018-06-24T08:02:24.840Z,998.8
2018-06-24T08:02:45.021Z,998.8
2018-06-24T08:03:05.163Z,998.8
2018-06-24T08:03:25.437Z,998.8
2018-06-24T08:03:45.523Z,998.7
2018-06-24T08:04:05.851Z,998.7
2018-06-24T08:04:26.065Z,998.7
2018-06-24T08:04:46.272Z,998.7
2018-06-24T08:05:06.520Z,998.7
2018-06-24T08:05:26.634Z,998.8
2018-06-24T08:05:46.809Z,998.7
2018-06-24T08:06:06.989Z,998.7
2018-06-24T08:06:27.222Z,998.7
2018-06-24T08:06:47.633Z,998.8
2018-06-24T08:07:07.811Z,998.8
2018-06-24T08:07:28.073Z,998.7
2018-06-24T08:07:48.537Z,998.8
2018-06-24T08:08:08.752Z,998.8
2018-06-24T08:08:29.028Z,998.8
2018-06-24T08:08:49.219Z,998.8
2018-06-24T08:09:10.338Z,998.8
2018-06-24T08:09:30.795Z,998.8
2018-06-24T08:09:50.970Z,998.8
2018-06-24T08:10:11.125Z,998.8
2018-06-24T08:10:31.308Z,998.8
2018-06-24T08:10:51.539Z,998.8
2018-06-24T08:11:11.838Z,998.8
2018-06-24T08:11:32.073Z,998.8
2018-06-24T08:11:52.251Z,998.8
2018-06-24T08:12:12.443Z,998.8
2018-06-24T08:12:33.027Z,998.8
2018-06-24T08:12:53.191Z,998.8
2018-06-24T08:13:13.388Z,998.8
2018-06-24T08:13:33.926Z,998.8
2018-06-24T08:13:54.172Z,998.8
2018-06-24T08:14:14.365Z,998.8
2018-06-24T08:14:34.531Z,998.8
2018-06-24T08:14:54.662Z,998.8
2018-06-24T08:15:14.923Z,998.8
2018-06-24T08:15:35.159Z,998.8
2018-06-24T08:15:55.338Z,998.8
2018-06-24T08:16:15.526Z,998.8
2018-06-24T08:16:35.828Z,998.8
2018-06-24T08:16:56.108Z,998.8
2018-06-24T08:17:16.343Z,998.8
2018-06-24T08:17:36.509Z,998.8
2018-06-24T08:17:56.811Z,998.8
2018-06-24T08:18:17.073Z,998.8
2018-06-24T08:18:37.232Z,998.8
2018-06-24T08:18:57.380Z,998.9
2018-06-24T08:19:17.561Z,998.8
2018-06-24T08:19:37.739Z,998.8
2018-06-24T08:19:57.873Z,998.8
2018-06-24T08:20:18.063Z,998.8
2018-06-24T08:20:38.258Z,998.8
2018-06-24T08:20:58.456Z,998.8
2018-06-24T08:21:18.770Z,998.8
2018-06-24T08:21:38.953Z,998.8
2018-06-24T08:21:59.129Z,998.7
2018-06-24T08:22:19.329Z,998.8
2018-06-24T08:22:39.551Z,998.8
2018-06-24T08:22:59.732Z,998.8
2018-06-24T08:23:20.080Z,998.8
2018-06-24T08:23:40.267Z,998.8
2018-06-24T08:24:00.456Z,998.8
2018-06-24T08:24:20.678Z,998.8
2018-06-24T08:24:41.111Z,998.8
2018-06-24T08:25:01.465Z,998.8
2018-06-24T08:25:21.872Z,998.8
2018-06-24T08:25:42.187Z,998.7
2018-06-24T08:26:02.424Z,998.8
2018-06-24T08:26:22.666Z,998.8
2018-06-24T08:26:42.996Z,998.8
2018-06-24T08:27:03.177Z,998.8
2018-06-24T08:27:23.356Z,998.8
2018-06-24T08:27:43.547Z,998.8
2018-06-24T08:28:03.789Z,998.8
2018-06-24T08:28:24.053Z,998.8
2018-06-24T08:28:44.285Z,998.8
2018-06-24T08:29:04.558Z,998.7
2018-06-24T08:29:24.767Z,998.8
2018-06-24T08:29:44.997Z,998.8
2018-06-24T08:30:05.208Z,998.8
2018-06-24T08:30:25.442Z,998.8
2018-06-24T08:30:45.866Z,998.8
2018-06-24T08:31:06.038Z,998.8
2018-06-24T08:31:26.482Z,998.8
2018-06-24T08:31:46.843Z,998.8
2018-06-24T08:32:07.221Z,998.8
2018-06-24T08:32:27.569Z,998.8
2018-06-24T08:32:47.808Z,998.8
2018-06-24T08:33:08.107Z,998.8
2018-06-24T08:33:28.457Z,998.8
2018-06-24T08:33:48.737Z,998.9
2018-06-24T08:34:08.978Z,998.9
2018-06-24T08:34:29.201Z,998.9
2018-06-24T08:34:49.448Z,998.9
2018-06-24T08:35:09.648Z,998.9
2018-06-24T08:35:29.943Z,998.9
2018-06-24T08:35:50.194Z,998.9
2018-06-24T08:36:10.467Z,998.9
2018-06-24T08:36:30.732Z,999
2018-06-24T08:36:50.994Z,998.9
2018-06-24T08:37:11.333Z,998.9
2018-06-24T08:37:31.619Z,999
2018-06-24T08:37:51.893Z,998.9
2018-06-24T08:38:12.429Z,998.9
2018-06-24T08:38:33.032Z,999
2018-06-24T08:38:53.365Z,998.9
2018-06-24T08:39:13.658Z,998.9
2018-06-24T08:39:34.136Z,999
2018-06-24T08:39:54.464Z,998.9
2018-06-24T08:40:14.714Z,999
2018-06-24T08:40:34.917Z,999
2018-06-24T08:40:55.219Z,998.9
2018-06-24T08:41:15.440Z,999
2018-06-24T08:41:35.632Z,998.9
2018-06-24T08:41:55.912Z,999
2018-06-24T08:42:16.148Z,998.9
2018-06-24T08:42:36.363Z,999
2018-06-24T08:42:56.628Z,999
2018-06-24T08:43:16.925Z,999
2018-06-24T08:43:37.192Z,999
2018-06-24T08:43:57.374Z,999
2018-06-24T08:44:17.552Z,999
2018-06-24T08:44:37.746Z,999
2018-06-24T08:44:57.953Z,999
2018-06-24T08:45:18.166Z,998.9
2018-06-24T08:45:38.475Z,999
2018-06-24T08:45:58.733Z,999
2018-06-24T08:46:19.002Z,999
2018-06-24T08:46:39.291Z,999
2018-06-24T08:46:59.552Z,999
2018-06-24T08:47:19.818Z,998.9
2018-06-24T08:47:40.161Z,998.9
2018-06-24T08:48:00.949Z,998.9
2018-06-24T08:48:21.192Z,998.9
2018-06-24T08:48:41.571Z,998.9
2018-06-24T08:49:01.862Z,998.9
2018-06-24T08:49:22.095Z,999
2018-06-24T08:49:42.390Z,998.9
2018-06-24T08:50:02.762Z,999
2018-06-24T08:50:23.014Z,998.9
2018-06-24T08:50:43.297Z,998.9
2018-06-24T08:51:03.578Z,998.9
2018-06-24T08:51:23.895Z,998.9
2018-06-24T08:51:44.328Z,998.9
2018-06-24T08:52:04.703Z,998.9
2018-06-24T08:52:24.957Z,998.9
2018-06-24T08:52:45.351Z,998.9
2018-06-24T08:53:05.648Z,998.9
2018-06-24T08:53:25.872Z,998.9
2018-06-24T08:53:46.144Z,998.9
2018-06-24T08:54:06.413Z,998.9
2018-06-24T08:54:26.671Z,998.9
2018-06-24T08:54:46.873Z,998.9
2018-06-24T08:55:07.225Z,998.8
2018-06-24T08:55:27.564Z,998.8
2018-06-24T08:55:48.120Z,998.9
2018-06-24T08:56:08.770Z,998.8
2018-06-24T08:56:29.158Z,998.8
2018-06-24T08:56:49.393Z,998.9
2018-06-24T08:57:09.778Z,998.9
2018-06-24T08:57:30.021Z,998.8
2018-06-24T08:57:50.423Z,998.8
2018-06-24T08:58:10.789Z,998.8
2018-06-24T08:58:31.112Z,998.9
2018-06-24T08:58:51.736Z,998.8
2018-06-24T08:59:12.302Z,998.8
2018-06-24T08:59:32.789Z,998.8
2018-06-24T08:59:53.803Z,998.8
2018-06-24T09:00:14.007Z,998.8
2018-06-24T09:00:34.340Z,998.8
2018-06-24T09:00:54.713Z,998.8
2018-06-24T09:01:15.141Z,998.8
2018-06-24T09:01:35.592Z,998.8
2018-06-24T09:01:55.792Z,998.7
2018-06-24T09:02:16.168Z,998.7
2018-06-24T09:02:36.435Z,998.8
2018-06-24T09:02:56.671Z,998.8
2018-06-24T09:03:17.084Z,998.7
2018-06-24T09:03:37.416Z,998.8
2018-06-24T09:03:58.265Z,998.8
2018-06-24T09:04:19.361Z,998.8
2018-06-24T09:04:40.096Z,998.8
2018-06-24T09:05:00.522Z,998.7
2018-06-24T09:05:21.458Z,998.8
2018-06-24T09:05:41.901Z,998.8
2018-06-24T09:06:02.869Z,998.8
2018-06-24T09:06:24.041Z,998.9
2018-06-24T09:06:44.900Z,998.9
2018-06-24T09:07:05.402Z,998.9
2018-06-24T09:07:25.971Z,998.8
2018-06-24T09:07:46.665Z,998.8
2018-06-24T09:08:07.485Z,998.8
2018-06-24T09:08:28.269Z,998.8
2018-06-24T09:08:48.787Z,998.8
2018-06-24T09:09:09.559Z,998.8
2018-06-24T09:09:30.295Z,998.7
2018-06-24T09:09:50.747Z,998.7
2018-06-24T09:10:11.444Z,998.7
2018-06-24T09:10:31.918Z,998.7
2018-06-24T09:10:52.623Z,998.7
2018-06-24T09:11:13.552Z,998.7
2018-06-24T09:11:34.720Z,998.8
2018-06-24T09:11:55.686Z,998.8
2018-06-24T09:12:16.344Z,998.8
2018-06-24T09:12:37.097Z,998.8
2018-06-24T09:12:57.507Z,998.8
2018-06-24T09:13:17.971Z,998.7
2018-06-24T09:13:38.913Z,998.8
2018-06-24T09:13:59.775Z,998.8
2018-06-24T09:14:20.433Z,998.7
2018-06-24T09:14:41.101Z,998.8
2018-06-24T09:15:01.739Z,998.7
2018-06-24T09:15:22.441Z,998.8
2018-06-24T09:15:46.988Z,998.8
2018-06-24T09:16:07.919Z,998.8
2018-06-24T09:16:28.563Z,998.8
2018-06-24T09:16:50.093Z,998.8
2018-06-24T09:17:10.739Z,998.8
2018-06-24T09:17:31.455Z,998.8
2018-06-24T09:17:52.044Z,998.8
2018-06-24T09:18:12.692Z,998.9
2018-06-24T09:18:33.397Z,998.9
2018-06-24T09:18:54.214Z,998.9
2018-06-24T09:19:14.911Z,998.9
2018-06-24T09:19:35.563Z,998.8
2018-06-24T09:19:56.011Z,998.8
2018-06-24T09:20:16.519Z,998.8
2018-06-24T09:20:37.091Z,998.8
2018-06-24T09:20:57.551Z,998.8
2018-06-24T09:21:18.448Z,998.9
2018-06-24T09:21:38.875Z,998.9
2018-06-24T09:21:59.504Z,998.9
2018-06-24T09:22:20.434Z,998.9
2018-06-24T09:22:41.100Z,998.9
2018-06-24T09:23:01.909Z,998.9
2018-06-24T09:23:22.393Z,998.9
2018-06-24T09:23:43.004Z,998.9
2018-06-24T09:24:03.786Z,998.9
2018-06-24T09:24:24.462Z,998.9
2018-06-24T09:24:45.156Z,998.9
2018-06-24T09:25:05.862Z,998.9
2018-06-24T09:25:26.402Z,998.9
2018-06-24T09:25:47.173Z,998.9
2018-06-24T09:26:07.590Z,998.9
2018-06-24T09:26:27.922Z,998.9
2018-06-24T09:26:48.347Z,998.9
2018-06-24T09:27:09.048Z,998.9
2018-06-24T09:27:29.638Z,998.9
2018-06-24T09:27:50.532Z,998.9
2018-06-24T09:28:10.971Z,998.9
2018-06-24T09:28:31.263Z,998.9
2018-06-24T09:28:51.930Z,998.9
2018-06-24T09:29:12.403Z,998.9
2018-06-24T09:29:32.941Z,998.9
2018-06-24T09:29:53.512Z,998.9
2018-06-24T09:30:13.755Z,998.9
2018-06-24T09:30:34.045Z,998.9
2018-06-24T09:30:54.683Z,998.9
2018-06-24T09:31:15.411Z,998.9
2018-06-24T09:31:35.939Z,998.9
2018-06-24T09:31:56.499Z,998.9
2018-06-24T09:32:17.383Z,998.9
2018-06-24T09:32:37.867Z,998.9
2018-06-24T09:32:58.324Z,998.9
2018-06-24T09:33:18.975Z,999
2018-06-24T09:33:39.525Z,998.9
2018-06-24T09:34:00.212Z,998.9
2018-06-24T09:34:20.592Z,998.9
2018-06-24T09:34:41.075Z,998.9
2018-06-24T09:35:02.044Z,999
2018-06-24T09:35:22.943Z,999
2018-06-24T09:35:43.556Z,998.9
2018-06-24T09:36:04.120Z,999
2018-06-24T09:36:24.479Z,999
2018-06-24T09:36:44.911Z,999
2018-06-24T09:37:05.389Z,999
2018-06-24T09:37:26.024Z,998.9
2018-06-24T09:37:46.579Z,999
2018-06-24T09:38:07.047Z,998.9
2018-06-24T09:38:27.599Z,998.9
2018-06-24T09:38:48.082Z,998.9
2018-06-24T09:39:09.220Z,998.9
2018-06-24T09:39:29.828Z,998.9
2018-06-24T09:39:50.315Z,998.9
2018-06-24T09:40:10.845Z,998.9
2018-06-24T09:40:31.433Z,998.9
2018-06-24T09:40:51.888Z,998.9
2018-06-24T09:41:12.492Z,999
2018-06-24T09:41:33.199Z,999
2018-06-24T09:41:54.094Z,999
2018-06-24T09:42:14.720Z,999
2018-06-24T09:42:35.328Z,999
2018-06-24T09:42:56.013Z,998.9
2018-06-24T09:43:16.655Z,999
2018-06-24T09:43:37.290Z,998.9
2018-06-24T09:43:58.172Z,998.9
2018-06-24T09:44:18.806Z,998.9
2018-06-24T09:44:39.882Z,999
2018-06-24T09:45:00.514Z,999
2018-06-24T09:45:21.164Z,999
2018-06-24T09:45:41.765Z,999
2018-06-24T09:46:02.348Z,999
2018-06-24T09:46:22.766Z,998.9
2018-06-24T09:46:43.426Z,999
2018-06-24T09:47:04.161Z,998.9
2018-06-24T09:47:24.707Z,998.9
2018-06-24T09:47:45.187Z,999
2018-06-24T09:48:06.040Z,999
2018-06-24T09:48:26.493Z,998.9
2018-06-24T09:48:47.227Z,999
2018-06-24T09:49:07.760Z,998.9
2018-06-24T09:49:28.460Z,998.9
2018-06-24T09:49:49.164Z,998.9
2018-06-24T09:50:09.676Z,998.9
2018-06-24T09:50:30.311Z,999
2018-06-24T09:50:51.139Z,998.9
2018-06-24T09:51:11.748Z,999
2018-06-24T09:51:32.339Z,998.9
2018-06-24T09:51:53.110Z,998.9
2018-06-24T09:52:14.062Z,999
2018-06-24T09:52:34.735Z,999
2018-06-24T09:52:55.457Z,998.9
2018-06-24T09:53:16.188Z,998.9
2018-06-24T09:53:36.850Z,998.9
2018-06-24T09:53:57.531Z,999
2018-06-24T09:54:18.535Z,999
2018-06-24T09:54:39.466Z,998.9
2018-06-24T09:55:00.432Z,998.9
2018-06-24T09:55:21.009Z,999
2018-06-24T09:55:41.606Z,998.9
2018-06-24T09:56:02.449Z,998.9
2018-06-24T09:56:23.308Z,998.9
2018-06-24T09:56:43.931Z,998.9
2018-06-24T09:57:04.540Z,998.9
2018-06-24T09:57:24.983Z,998.9
2018-06-24T09:57:45.729Z,998.9
2018-06-24T09:58:06.408Z,999
2018-06-24T09:58:27.245Z,999
2018-06-24T09:58:47.954Z,999
2018-06-24T09:59:08.679Z,999
2018-06-24T09:59:29.392Z,999
2018-06-24T09:59:50.746Z,999
2018-06-24T10:00:11.541Z,999
2018-06-24T10:00:32.517Z,999
2018-06-24T10:00:53.185Z,999
2018-06-24T10:01:13.779Z,999
2018-06-24T10:01:34.616Z,999
2018-06-24T10:01:55.629Z,999
2018-06-24T10:02:16.446Z,999
2018-06-24T10:02:37.148Z,999
2018-06-24T10:02:57.659Z,999
2018-06-24T10:03:18.340Z,999
2018-06-24T10:03:39.137Z,999.1
2018-06-24T10:04:00.483Z,999
2018-06-24T10:04:21.139Z,999.1
2018-06-24T10:04:42.025Z,999
2018-06-24T10:05:02.536Z,999
2018-06-24T10:05:23.647Z,999.1
2018-06-24T10:05:44.588Z,999
2018-06-24T10:06:05.368Z,999
2018-06-24T10:06:25.957Z,999
2018-06-24T10:06:46.640Z,999
2018-06-24T10:07:07.444Z,999
2018-06-24T10:07:28.162Z,999
2018-06-24T10:07:48.869Z,999
2018-06-24T10:08:09.453Z,999
2018-06-24T10:08:30.110Z,999
2018-06-24T10:08:51.325Z,998.9
2018-06-24T10:09:11.751Z,998.9
2018-06-24T10:09:32.630Z,999
2018-06-24T10:09:53.367Z,998.9
2018-06-24T10:10:14.345Z,998.9
2018-06-24T10:10:34.994Z,998.9
2018-06-24T10:10:55.799Z,998.9
2018-06-24T10:11:16.924Z,998.9
2018-06-24T10:11:37.665Z,998.9
2018-06-24T10:11:58.509Z,999
2018-06-24T10:12:19.203Z,999
2018-06-24T10:12:39.740Z,999
2018-06-24T10:13:00.512Z,999
2018-06-24T10:13:21.416Z,999
2018-06-24T10:13:42.159Z,999
2018-06-24T10:14:03.990Z,999
2018-06-24T10:14:24.877Z,998.9
2018-06-24T10:14:47.151Z,998.9
2018-06-24T10:15:08.079Z,999
2018-06-24T10:15:29.170Z,999
2018-06-24T10:15:50.125Z,998.9
2018-06-24T10:16:10.956Z,999
2018-06-24T10:16:31.964Z,999
2018-06-24T10:16:52.970Z,999
2018-06-24T10:17:13.560Z,999
2018-06-24T10:17:34.252Z,999
2018-06-24T10:17:54.920Z,999
2018-06-24T10:18:15.892Z,999
2018-06-24T10:18:36.974Z,999.1
2018-06-24T10:18:58.099Z,999
2018-06-24T10:19:18.699Z,999.1
2018-06-24T10:19:39.490Z,999.1
2018-06-24T10:20:00.735Z,999
2018-06-24T10:20:22.791Z,999.1
2018-06-24T10:20:43.131Z,999.1
2018-06-24T10:21:04.469Z,999
2018-06-24T10:21:24.956Z,999
2018-06-24T10:21:45.425Z,999
2018-06-24T10:22:06.144Z,999
2018-06-24T10:22:26.538Z,999
2018-06-24T10:22:47.122Z,999
2018-06-24T10:23:07.764Z,999
2018-06-24T18:11:45.907Z,997.6
2018-06-24T18:12:06.140Z,997.7
2018-06-24T18:42:19.853Z,997.8
